Accueil
METAR-TAF:

METAR-TAF

Aéroports :

Anchorage, Alaska, États-Unis

latitude: 61-13N, longitude: 149-51W, altitude: 42 m

Observation

Le bulletin a été fait il y a 26 minutes, à 23:53 UTC
Vent 3 kt de nord-est
Température 1°C
Humidité 59%
Pression 1007 hPa
Visibilité: 16.1 km
Ciel clair

METAR: PAMR 112353Z 05003KT 10SM CLR 01/M06 A2973 RMK AO2 SLP069 T00061056 10006 21044 56023 $

Heure: 15:19 (00:19 UTC)


TAF: absent

Observations et prévisions météorologiques de plus de 4000 aéroports (messages METAR et TAF).

Les stations disponibles sont représentées par des disques jaunes et rouges sur la carte.

Passer la souris dessus pour voir le nom de la station.

Cliquer dessus pour voir les observations et prévisions météorologiques.

Pour changer de carte: cliquez sur les boutons verts avec une croix noire pour zoomer, sur le bouton vert avec un tiret pour effectuer un zoom arrière, ou sur les flèches vertes pour les cartes adjacentes.


METAR-TAF: